Time;durP1;ratioP1;P1;durP2;ratioP2;P2;SDS_P1;SDS_P2;PMS_P1;PMS_P2;Temp;Humidity;BMP_temperature;BMP_pressure;BME280_temperature;BME280_humidity;BME280_pressure;Samples;Min_cycle;Max_cycle;Signal;HPM_P1;HPM_P2
2021/04/04 00:00:13;;;;;;;8.63;3.00;;;0.30;99.90;;;;;;6254773;22;20438;-95
2021/04/04 00:02:57;;;;;;;7.40;2.72;;;0.20;99.90;;;;;;6253022;22;20434;-96
2021/04/04 00:05:25;;;;;;;10.40;3.30;;;0.30;99.90;;;;;;6254055;22;20753;-93
2021/04/04 00:07:53;;;;;;;9.07;2.60;;;0.30;99.90;;;;;;6283183;22;20505;-95
2021/04/04 00:10:20;;;;;;;6.07;2.60;;;0.40;99.90;;;;;;6258401;22;20480;-95
2021/04/04 00:12:49;;;;;;;4.70;2.45;;;0.40;99.90;;;;;;6285972;22;20384;-96
2021/04/04 00:15:17;;;;;;;8.20;2.57;;;0.30;99.90;;;;;;6257889;22;20741;-96
2021/04/04 00:17:44;;;;;;;4.90;2.08;;;0.40;99.90;;;;;;6257755;22;20454;-95
2021/04/04 00:20:15;;;;;;;6.80;1.80;;;0.40;99.90;;;;;;6258333;22;20429;-96
2021/04/04 00:22:45;;;;;;;5.00;1.77;;;0.50;99.90;;;;;;6259125;22;20415;-96
2021/04/04 00:25:15;;;;;;;7.75;1.95;;;0.50;99.90;;;;;;6258442;22;20530;-94
2021/04/04 00:27:58;;;;;;;5.95;2.10;;;0.50;99.90;;;;;;6260867;22;20376;-96
2021/04/04 00:30:51;;;;;;;7.32;2.47;;;0.60;99.90;;;;;;6179336;23;20416;-95
2021/04/04 00:34:08;;;;;;;5.13;2.25;;;0.50;99.90;;;;;;6178532;23;20843;-96
2021/04/04 00:37:45;;;;;;;5.50;2.30;;;0.30;99.90;;;;;;6199560;23;20380;-95
2021/04/04 00:46:51;;;;;;;4.45;2.60;;;0.10;99.90;;;;;;6200292;23;20400;-95
2021/04/04 00:50:25;;;;;;;7.22;2.55;;;0.10;99.90;;;;;;6053600;23;20451;-96
2021/04/04 00:53:00;;;;;;;7.20;2.53;;;0.00;99.90;;;;;;6051030;23;20412;-95
2021/04/04 00:55:53;;;;;;;5.70;2.70;;;0.00;99.90;;;;;;6014138;23;20386;-95
2021/04/04 00:59:06;;;;;;;7.87;3.10;;;-0.30;99.90;;;;;;6034171;23;20398;-96
2021/04/04 01:02:02;;;;;;;4.97;2.75;;;-0.40;99.90;;;;;;6074526;23;20406;-95
2021/04/04 01:05:05;;;;;;;7.55;3.00;;;-0.50;99.90;;;;;;6109937;23;20414;-96
2021/04/04 01:07:56;;;;;;;8.30;3.15;;;-0.50;99.90;;;;;;6096468;23;20473;-96
2021/04/04 01:10:51;;;;;;;7.43;3.03;;;-0.60;99.90;;;;;;6041248;23;20421;-96
2021/04/04 01:14:10;;;;;;;12.07;3.47;;;-0.60;99.90;;;;;;6047653;23;20394;-95
2021/04/04 01:17:20;;;;;;;7.80;3.30;;;-0.80;99.90;;;;;;6074579;23;20400;-93
2021/04/04 01:20:55;;;;;;;12.98;3.42;;;-1.00;99.90;;;;;;6036810;23;20395;-96
2021/04/04 01:24:52;;;;;;;10.85;3.78;;;-1.30;99.90;;;;;;6011793;23;20409;-95
2021/04/04 01:28:00;;;;;;;13.85;3.58;;;-1.40;99.90;;;;;;6060966;23;20440;-96
2021/04/04 01:30:36;;;;;;;9.88;3.60;;;-1.50;99.90;;;;;;6076137;23;20396;-96
2021/04/04 01:33:18;;;;;;;7.35;3.15;;;-1.40;99.90;;;;;;6080679;23;20390;-93
2021/04/04 01:36:01;;;;;;;10.73;3.42;;;-1.60;99.90;;;;;;6081284;23;20829;-95
2021/04/04 01:38:45;;;;;;;7.70;3.30;;;-1.60;99.90;;;;;;6061555;23;20401;-94
2021/04/04 01:41:32;;;;;;;9.85;3.35;;;-1.40;99.90;;;;;;6107126;23;20396;-96
2021/04/04 01:44:11;;;;;;;8.55;3.20;;;-1.20;99.90;;;;;;6107934;23;20432;-96
2021/04/04 01:46:41;;;;;;;5.93;3.00;;;-1.20;99.90;;;;;;6106816;23;20920;-93
2021/04/04 01:49:15;;;;;;;8.07;2.95;;;-1.00;99.90;;;;;;6083000;23;20424;-96
2021/04/04 01:51:45;;;;;;;10.23;3.20;;;-0.90;99.90;;;;;;6104468;23;20399;-96
2021/04/04 01:54:17;;;;;;;8.95;3.10;;;-1.00;99.90;;;;;;6080531;23;20390;-93
2021/04/04 01:56:51;;;;;;;7.30;2.88;;;-1.00;99.90;;;;;;6078362;23;20537;-95
2021/04/04 02:08:32;;;;;;;8.40;3.15;;;-1.00;99.90;;;;;;6276240;22;20378;-95
2021/04/04 02:18:29;;;;;;;7.07;3.03;;;-1.00;99.90;;;;;;6264715;22;20414;-95
2021/04/04 02:21:19;;;;;;;7.72;3.17;;;-1.00;99.90;;;;;;6274164;22;20459;-92
2021/04/04 02:25:03;;;;;;;5.85;2.97;;;-1.00;99.90;;;;;;6292612;22;20392;-94
2021/04/04 02:27:54;;;;;;;8.63;3.40;;;-0.90;99.90;;;;;;6252103;23;20377;-96
2021/04/04 02:30:21;;;;;;;8.93;3.33;;;-1.10;99.90;;;;;;6224257;23;20446;-93
2021/04/04 02:33:05;;;;;;;7.93;3.03;;;-1.20;99.90;;;;;;6221371;23;20465;-96
2021/04/04 02:35:41;;;;;;;7.57;3.30;;;-1.20;99.90;;;;;;6221469;23;20485;-96
2021/04/04 02:38:14;;;;;;;7.93;3.10;;;-1.20;99.90;;;;;;6219204;22;20386;-92
2021/04/04 02:40:44;;;;;;;6.88;3.40;;;-1.30;99.90;;;;;;6246947;22;20374;-92
2021/04/04 02:43:16;;;;;;;6.82;3.45;;;-1.60;99.90;;;;;;6244016;22;20420;-93
2021/04/04 02:45:45;;;;;;;6.93;3.60;;;-1.70;99.90;;;;;;6238576;22;20412;-96
2021/04/04 02:48:17;;;;;;;6.45;3.20;;;-1.60;99.90;;;;;;6226777;23;20475;-94
2021/04/04 02:50:47;;;;;;;5.80;3.50;;;-1.50;99.90;;;;;;6222410;23;20386;-95
2021/04/04 02:53:16;;;;;;;9.85;3.58;;;-1.50;99.90;;;;;;6222230;23;20409;-96
2021/04/04 02:55:45;;;;;;;7.63;3.75;;;-1.60;99.90;;;;;;6197242;23;20546;-96
2021/04/04 02:58:12;;;;;;;6.78;3.95;;;-1.70;99.90;;;;;;6229568;22;20447;-92
2021/04/04 03:00:49;;;;;;;8.07;3.78;;;-1.90;99.90;;;;;;6254047;22;20384;-95
2021/04/04 03:03:18;;;;;;;8.45;4.15;;;-2.00;99.90;;;;;;6253846;22;20435;-96
2021/04/04 03:05:48;;;;;;;8.52;3.78;;;-1.90;99.90;;;;;;6253503;22;20376;-92
2021/04/04 03:08:17;;;;;;;7.63;3.47;;;-1.80;99.90;;;;;;6279281;22;20391;-92
2021/04/04 03:10:51;;;;;;;8.18;3.60;;;-1.70;99.90;;;;;;6252501;22;20480;-95
2021/04/04 03:13:20;;;;;;;10.10;3.50;;;-1.70;99.90;;;;;;6259310;22;20388;-93
2021/04/04 03:15:50;;;;;;;8.57;3.50;;;-1.70;99.90;;;;;;6258685;22;20967;-95
2021/04/04 03:18:19;;;;;;;7.10;3.30;;;-1.60;99.90;;;;;;6262878;22;20880;-95
2021/04/04 03:20:53;;;;;;;9.75;3.75;;;-1.70;99.90;;;;;;6254466;23;20382;-93
2021/04/04 03:23:21;;;;;;;7.25;3.45;;;-1.70;99.90;;;;;;6252266;23;20402;-96
2021/04/04 03:25:49;;;;;;;8.73;3.25;;;-1.60;99.90;;;;;;6256415;23;20386;-93
2021/04/04 03:28:18;;;;;;;8.27;3.90;;;-1.70;99.90;;;;;;6254437;23;20393;-93
2021/04/04 03:30:48;;;;;;;8.27;3.75;;;-1.70;99.90;;;;;;6255710;23;20392;-94
2021/04/04 03:33:20;;;;;;;10.55;3.72;;;-1.70;99.90;;;;;;6230028;23;20382;-95
2021/04/04 03:35:52;;;;;;;7.10;3.57;;;-1.80;99.90;;;;;;6253412;23;20451;-96
2021/04/04 03:38:23;;;;;;;9.50;3.63;;;-1.80;99.90;;;;;;6251950;23;20386;-96
2021/04/04 03:41:01;;;;;;;9.18;3.92;;;-1.90;99.90;;;;;;6234721;23;20397;-93
2021/04/04 03:43:50;;;;;;;7.82;3.53;;;-1.90;99.90;;;;;;6260277;22;20448;-96
2021/04/04 03:46:45;;;;;;;7.63;3.93;;;-2.10;99.90;;;;;;6263377;22;20396;-96
2021/04/04 03:49:33;;;;;;;8.07;3.50;;;-2.20;99.90;;;;;;6259115;23;20377;-95
2021/04/04 03:52:22;;;;;;;8.60;3.92;;;-2.20;99.90;;;;;;6255513;23;20389;-96
2021/04/04 03:54:53;;;;;;;7.97;3.85;;;-2.20;99.90;;;;;;6252658;23;20413;-96
2021/04/04 03:57:27;;;;;;;10.68;3.78;;;-2.30;99.90;;;;;;6232647;23;20456;-96
2021/04/04 04:00:11;;;;;;;9.00;3.50;;;-2.20;99.90;;;;;;6242650;23;20365;-93
2021/04/04 04:02:41;;;;;;;10.70;4.30;;;-2.30;99.90;;;;;;6232711;23;20421;-95
2021/04/04 04:05:09;;;;;;;8.50;4.20;;;-2.30;99.90;;;;;;6254301;23;20417;-96
2021/04/04 04:07:38;;;;;;;10.40;4.00;;;-2.30;99.90;;;;;;6229366;23;20382;-95
2021/04/04 04:10:06;;;;;;;7.50;3.75;;;-2.40;99.90;;;;;;6253547;23;20386;-96
2021/04/04 04:12:36;;;;;;;8.68;4.15;;;-2.40;99.90;;;;;;6250819;23;20382;-95
2021/04/04 04:15:05;;;;;;;8.43;4.00;;;-2.40;99.90;;;;;;6251919;23;20469;-95
2021/04/04 04:17:33;;;;;;;11.40;4.28;;;-2.40;99.90;;;;;;6226284;23;20449;-95
2021/04/04 04:20:09;;;;;;;9.67;3.97;;;-2.40;99.90;;;;;;6254371;22;20397;-96
2021/04/04 04:22:39;;;;;;;10.75;4.40;;;-2.40;99.90;;;;;;6258187;22;20414;-95
2021/04/04 04:25:09;;;;;;;10.63;4.00;;;-2.40;99.90;;;;;;6261391;22;20408;-96
2021/04/04 04:27:48;;;;;;;8.25;3.67;;;-2.50;99.90;;;;;;6267194;22;20374;-96
2021/04/04 04:30:52;;;;;;;8.23;3.80;;;-2.40;99.90;;;;;;6250252;22;20365;-95
2021/04/04 04:33:23;;;;;;;9.57;4.20;;;-2.50;99.90;;;;;;6238607;22;20381;-95
2021/04/04 04:36:06;;;;;;;9.95;4.20;;;-2.30;99.90;;;;;;6267120;22;20448;-92
2021/04/04 04:38:58;;;;;;;8.38;3.85;;;-2.40;99.90;;;;;;6294676;22;20384;-96
2021/04/04 04:42:04;;;;;;;10.07;4.30;;;-2.40;99.90;;;;;;6280168;22;20383;-91
2021/04/04 04:44:36;;;;;;;10.05;4.10;;;-2.50;99.90;;;;;;6276318;22;20384;-91
2021/04/04 04:47:24;;;;;;;9.82;4.18;;;-2.40;99.90;;;;;;6278181;22;20384;-91
2021/04/04 04:50:15;;;;;;;9.80;4.17;;;-2.50;99.90;;;;;;6250218;22;20443;-92
2021/04/04 04:53:02;;;;;;;8.82;3.95;;;-2.50;99.90;;;;;;6296885;22;20419;-96
2021/04/04 04:56:00;;;;;;;7.53;4.00;;;-2.60;99.90;;;;;;6289903;22;20519;-93
2021/04/04 04:59:07;;;;;;;13.23;4.70;;;-2.50;99.90;;;;;;6273363;22;20407;-95
2021/04/04 05:02:55;;;;;;;10.10;4.30;;;-2.40;99.90;;;;;;6171780;23;20449;-92
2021/04/04 05:06:19;;;;;;;14.65;4.38;;;-2.30;99.90;;;;;;6199733;23;20401;-95
2021/04/04 05:15:50;;;;;;;7.88;4.05;;;-2.40;99.90;;;;;;6311544;22;20370;-96
2021/04/04 05:18:35;;;;;;;8.40;3.97;;;-2.50;99.90;;;;;;6259826;23;20425;-96
2021/04/04 05:22:07;;;;;;;7.93;3.70;;;-2.30;99.90;;;;;;6222269;22;20412;-94
2021/04/04 05:29:13;;;;;;;9.43;4.07;;;-2.20;99.90;;;;;;6146263;23;20376;-96
2021/04/04 05:32:17;;;;;;;9.63;3.92;;;-2.10;99.90;;;;;;6143347;23;20380;-94
2021/04/04 05:35:40;;;;;;;9.52;4.40;;;-1.90;99.90;;;;;;6105436;23;20380;-92
2021/04/04 05:38:40;;;;;;;10.60;4.10;;;-1.80;99.90;;;;;;6140644;23;20884;-96
2021/04/04 05:42:13;;;;;;;8.57;4.00;;;-1.80;99.90;;;;;;6078269;23;20393;-95
2021/04/04 05:45:42;;;;;;;8.73;3.95;;;-1.60;99.90;;;;;;6061082;23;20433;-95
2021/04/04 05:49:21;;;;;;;7.30;3.57;;;-1.50;99.90;;;;;;6195014;22;20436;-94
2021/04/04 05:52:19;;;;;;;10.37;3.93;;;-1.40;99.90;;;;;;6257477;22;20410;-95
2021/04/04 05:55:13;;;;;;;8.48;3.65;;;-1.50;99.90;;;;;;6259045;22;20392;-95
2021/04/04 06:06:28;;;;;;;7.55;3.65;;;-1.10;99.90;;;;;;6295750;22;20394;-93
2021/04/04 06:09:14;;;;;;;7.60;3.20;;;-0.70;99.90;;;;;;6278291;22;20368;-92
2021/04/04 06:11:53;;;;;;;8.55;3.40;;;-0.40;99.90;;;;;;6260919;22;20769;-96
2021/04/04 06:14:35;;;;;;;9.27;3.13;;;-0.10;99.90;;;;;;6253753;22;20411;-93
2021/04/04 06:17:15;;;;;;;7.32;3.17;;;0.00;99.90;;;;;;6252721;22;20459;-91
2021/04/04 06:20:06;;;;;;;34.72;19.90;;;0.30;99.90;;;;;;6253991;22;20387;-96
2021/04/04 06:22:49;;;;;;;19.27;11.70;;;1.20;99.90;;;;;;6253111;22;20380;-95
2021/04/04 06:25:42;;;;;;;12.45;6.10;;;3.10;98.50;;;;;;6255652;22;20388;-92
2021/04/04 06:28:40;;;;;;;7.90;2.50;;;5.50;91.70;;;;;;6254576;22;20467;-95
2021/04/04 06:31:36;;;;;;;5.25;2.20;;;7.20;78.00;;;;;;6277067;22;20404;-91
2021/04/04 06:34:16;;;;;;;5.95;2.20;;;8.20;72.50;;;;;;6278711;22;20368;-94
2021/04/04 06:36:55;;;;;;;5.63;2.33;;;8.50;66.00;;;;;;6245358;22;20384;-96
2021/04/04 06:39:46;;;;;;;5.60;2.20;;;9.10;65.90;;;;;;6266229;22;20384;-96
2021/04/04 06:42:53;;;;;;;4.32;2.25;;;9.90;61.70;;;;;;6287023;22;20455;-94
2021/04/04 06:45:46;;;;;;;6.55;2.30;;;9.80;61.40;;;;;;6257536;22;20430;-95
2021/04/04 06:48:48;;;;;;;4.50;1.95;;;9.40;59.70;;;;;;6290307;22;20373;-92
2021/04/04 06:51:49;;;;;;;6.00;2.22;;;8.70;59.70;;;;;;6263730;22;20459;-91
2021/04/04 06:54:56;;;;;;;5.55;2.25;;;7.90;63.80;;;;;;6285579;22;20434;-92
2021/04/04 06:58:03;;;;;;;5.70;2.25;;;7.80;63.10;;;;;;6257223;22;20768;-94
2021/04/04 07:08:13;;;;;;;5.50;2.25;;;10.50;54.90;;;;;;6290875;22;20372;-91
2021/04/04 07:14:59;;;;;;;7.65;2.15;;;11.70;51.90;;;;;;6257444;23;20444;-94
2021/04/04 07:17:45;;;;;;;3.97;1.80;;;13.10;45.10;;;;;;6222502;23;20394;-92
2021/04/04 08:25:28;;;;;;;4.57;1.80;;;7.30;50.30;;;;;;6251903;22;20408;-91
2021/04/04 08:36:19;;;;;;;4.60;2.30;;;5.20;52.00;;;;;;6172990;22;20480;-93
2021/04/04 08:43:39;;;;;;;5.70;1.55;;;5.90;52.20;;;;;;6228926;23;20371;-93
2021/04/04 08:53:02;;;;;;;3.70;1.60;;;6.60;52.30;;;;;;6283870;22;20394;-92
2021/04/04 08:55:53;;;;;;;5.30;2.30;;;5.60;55.60;;;;;;6266918;22;20392;-91
2021/04/04 08:58:45;;;;;;;4.57;2.10;;;5.20;58.10;;;;;;6243597;22;20842;-92
2021/04/04 09:01:31;;;;;;;4.70;1.75;;;5.40;59.80;;;;;;6237512;23;20453;-96
2021/04/04 09:04:22;;;;;;;8.43;4.13;;;5.40;56.50;;;;;;6236193;23;20389;-93
2021/04/04 09:06:52;;;;;;;3.22;1.90;;;5.20;59.40;;;;;;6233159;23;20437;-91
2021/04/04 09:12:04;;;;;;;3.90;1.70;;;4.80;60.80;;;;;;6277421;22;20372;-94
2021/04/04 09:14:56;;;;;;;3.95;1.88;;;4.50;61.40;;;;;;6249941;22;20381;-96
2021/04/04 09:38:51;;;;;;;4.00;1.95;;;5.00;61.10;;;;;;6259618;22;20390;-93
2021/04/04 09:41:21;;;;;;;4.50;1.80;;;4.90;61.50;;;;;;6258610;23;20408;-96
2021/04/04 09:44:37;;;;;;;4.55;1.90;;;5.40;60.50;;;;;;6260539;22;20535;-91
2021/04/04 09:47:30;;;;;;;4.07;2.00;;;5.60;60.10;;;;;;6266005;23;20374;-92
2021/04/04 09:50:30;;;;;;;6.53;1.88;;;5.00;59.30;;;;;;6146258;23;20406;-93
2021/04/04 09:52:59;;;;;;;8.40;3.33;;;5.10;63.00;;;;;;6152519;23;20382;-93
2021/04/04 09:56:10;;;;;;;5.38;2.00;;;6.00;63.60;;;;;;6154975;23;20379;-93
2021/04/04 10:04:43;;;;;;;3.00;1.52;;;8.40;49.70;;;;;;6277910;22;20384;-96
2021/04/04 10:07:33;;;;;;;4.05;1.65;;;7.80;52.30;;;;;;6221325;22;20383;-95
2021/04/04 10:10:04;;;;;;;4.30;1.70;;;7.10;57.30;;;;;;6287015;22;20667;-90
2021/04/04 10:13:00;;;;;;;5.38;1.90;;;7.00;55.30;;;;;;6262509;22;20395;-91
2021/04/04 10:16:01;;;;;;;5.38;1.95;;;6.10;55.70;;;;;;6213959;22;20472;-91
2021/04/04 10:21:30;;;;;;;5.80;1.98;;;4.90;60.20;;;;;;6285736;22;20392;-91
2021/04/04 10:24:50;;;;;;;6.10;2.97;;;4.60;62.10;;;;;;6244568;22;20408;-91
2021/04/04 10:27:47;;;;;;;5.35;2.20;;;4.60;63.50;;;;;;6272211;22;20414;-92
2021/04/04 10:30:56;;;;;;;4.60;2.15;;;4.30;66.10;;;;;;6301955;22;20372;-93
2021/04/04 10:33:32;;;;;;;3.67;1.90;;;4.30;66.20;;;;;;6271849;22;20872;-89
2021/04/04 10:36:20;;;;;;;5.93;2.37;;;4.10;66.40;;;;;;6265247;22;20400;-90
2021/04/04 10:38:47;;;;;;;4.63;1.95;;;4.30;67.70;;;;;;6260712;22;20379;-90
2021/04/04 10:41:35;;;;;;;14.90;3.90;;;4.90;66.60;;;;;;6255591;22;20632;-91
2021/04/04 10:47:46;;;;;;;4.10;2.17;;;6.40;61.40;;;;;;6230648;23;20439;-92
2021/04/04 10:50:44;;;;;;;4.88;2.28;;;7.20;65.30;;;;;;6200145;23;20388;-92
2021/04/04 10:54:08;;;;;;;3.75;1.88;;;8.00;58.80;;;;;;6199081;23;20496;-91
2021/04/04 10:57:10;;;;;;;6.57;2.13;;;8.00;52.50;;;;;;6140650;23;20368;-92
2021/04/04 11:00:17;;;;;;;5.63;2.13;;;7.30;55.30;;;;;;6124933;23;20407;-90
2021/04/04 11:03:03;;;;;;;6.15;2.80;;;7.30;55.30;;;;;;6108925;23;20385;-91
2021/04/04 11:05:30;;;;;;;6.38;2.83;;;6.70;58.20;;;;;;6137049;23;20396;-91
2021/04/04 11:08:22;;;;;;;5.70;1.75;;;6.50;60.10;;;;;;6137477;23;20393;-91
2021/04/04 11:11:13;;;;;;;15.03;5.90;;;6.10;58.90;;;;;;6052700;23;20393;-91
2021/04/04 11:14:13;;;;;;;14.20;4.28;;;6.20;59.80;;;;;;6051194;23;20386;-91
2021/04/04 11:17:05;;;;;;;8.33;2.70;;;6.40;56.20;;;;;;6030534;23;20389;-91
2021/04/04 11:20:00;;;;;;;5.20;1.98;;;6.80;56.10;;;;;;5997199;23;20472;-90
2021/04/04 11:23:05;;;;;;;21.05;7.63;;;6.70;55.80;;;;;;6221606;22;20396;-88
2021/04/04 11:25:40;;;;;;;6.15;2.75;;;7.40;55.80;;;;;;6274403;22;20426;-90
2021/04/04 11:32:22;;;;;;;7.32;2.42;;;6.50;56.90;;;;;;6291242;22;20430;-91
2021/04/04 11:35:20;;;;;;;3.78;1.52;;;5.80;58.90;;;;;;6283491;22;20774;-90
2021/04/04 11:37:53;;;;;;;4.20;2.10;;;6.30;59.30;;;;;;6244226;22;20434;-93
2021/04/04 11:40:27;;;;;;;4.45;1.83;;;7.00;56.50;;;;;;6157310;23;20381;-91
2021/04/04 11:43:28;;;;;;;8.88;2.50;;;7.00;53.70;;;;;;6118033;23;20396;-90
2021/04/04 11:46:03;;;;;;;5.20;1.98;;;6.50;55.90;;;;;;6114188;23;20431;-91
2021/04/04 11:48:56;;;;;;;10.60;4.13;;;6.30;57.00;;;;;;6136397;23;20504;-92
2021/04/04 11:51:34;;;;;;;10.27;3.17;;;6.30;60.80;;;;;;6137387;23;20389;-91
2021/04/04 11:54:35;;;;;;;4.45;1.73;;;6.50;58.10;;;;;;6141035;23;20384;-92
2021/04/04 12:03:28;;;;;;;3.63;1.73;;;7.70;56.70;;;;;;6252020;22;20358;-90
2021/04/04 12:06:49;;;;;;;6.07;1.83;;;8.70;54.50;;;;;;6237710;22;20390;-92
2021/04/04 12:10:13;;;;;;;3.33;1.87;;;9.30;54.30;;;;;;6273327;22;20396;-92
2021/04/04 12:21:07;;;;;;;3.80;1.77;;;8.60;52.20;;;;;;6259490;22;20404;-90
2021/04/04 12:23:36;;;;;;;8.13;3.60;;;7.90;53.60;;;;;;6228591;22;20388;-94
2021/04/04 12:26:16;;;;;;;5.05;2.17;;;7.60;54.80;;;;;;6255689;22;20388;-94
2021/04/04 12:28:43;;;;;;;8.03;3.47;;;7.30;56.10;;;;;;6255972;22;20444;-90
2021/04/04 12:31:15;;;;;;;6.95;2.53;;;7.20;56.90;;;;;;6255193;22;20371;-89
2021/04/04 12:36:51;;;;;;;4.63;1.95;;;7.90;54.30;;;;;;6255039;22;20863;-95
2021/04/04 12:39:36;;;;;;;5.82;2.63;;;7.50;54.00;;;;;;6231145;23;20393;-92
2021/04/04 12:42:12;;;;;;;3.30;1.50;;;8.10;53.30;;;;;;6224925;23;20382;-96
2021/04/04 12:44:41;;;;;;;5.37;2.13;;;8.30;50.90;;;;;;6222873;23;20460;-86
2021/04/04 12:47:27;;;;;;;2.92;1.50;;;8.60;52.90;;;;;;6229380;23;20401;-91
2021/04/04 12:50:24;;;;;;;4.40;1.60;;;9.00;50.70;;;;;;6239337;23;20346;-91
2021/04/04 12:53:33;;;;;;;5.20;1.80;;;8.20;50.10;;;;;;6254035;23;20394;-92
2021/04/04 12:56:04;;;;;;;10.20;2.05;;;7.40;52.90;;;;;;6252726;22;20399;-90
2021/04/04 13:01:26;;;;;;;3.20;1.75;;;9.10;52.60;;;;;;6274697;22;20400;-96
2021/04/04 13:03:56;;;;;;;6.55;2.30;;;10.00;48.80;;;;;;6289038;22;20391;-94
2021/04/04 13:06:26;;;;;;;2.90;1.52;;;9.90;48.10;;;;;;6253398;22;20376;-89
2021/04/04 13:08:53;;;;;;;6.18;1.67;;;9.00;48.90;;;;;;6278262;22;20399;-83
2021/04/04 13:11:20;;;;;;;4.60;1.80;;;8.80;49.00;;;;;;6254411;22;20376;-86
2021/04/04 13:13:47;;;;;;;3.22;1.83;;;8.40;49.80;;;;;;6252042;22;20695;-87
2021/04/04 13:16:16;;;;;;;4.00;1.88;;;8.00;51.40;;;;;;6279471;22;20414;-89
2021/04/04 13:18:45;;;;;;;4.70;2.00;;;8.10;51.40;;;;;;6256363;22;20438;-88
2021/04/04 13:21:18;;;;;;;4.53;2.20;;;8.00;54.20;;;;;;6272268;22;20787;-87
2021/04/04 13:23:46;;;;;;;5.20;2.10;;;8.40;54.50;;;;;;6265778;22;20467;-86
2021/04/04 13:26:19;;;;;;;4.40;1.80;;;8.80;53.50;;;;;;6267473;22;20454;-92
2021/04/04 13:29:08;;;;;;;3.35;1.70;;;9.60;48.50;;;;;;6268369;22;20384;-88
2021/04/04 13:31:36;;;;;;;4.85;1.60;;;10.30;47.70;;;;;;6250935;22;20380;-86
2021/04/04 13:34:14;;;;;;;3.28;1.70;;;10.10;47.10;;;;;;6254372;22;20368;-88
2021/04/04 13:36:46;;;;;;;3.50;1.60;;;10.40;48.80;;;;;;6260686;22;20408;-96
2021/04/04 13:39:21;;;;;;;2.83;1.40;;;11.30;46.40;;;;;;6259082;22;20360;-85
2021/04/04 13:41:49;;;;;;;3.97;1.48;;;11.30;43.10;;;;;;6276530;22;20489;-91
2021/04/04 13:44:21;;;;;;;4.22;1.65;;;11.60;42.70;;;;;;6276019;22;20391;-90
2021/04/04 13:46:51;;;;;;;3.55;1.50;;;11.10;42.80;;;;;;6273050;22;20386;-81
2021/04/04 13:49:22;;;;;;;4.97;1.80;;;10.60;43.80;;;;;;6254142;22;20375;-79
2021/04/04 13:51:50;;;;;;;4.03;1.73;;;10.20;50.00;;;;;;6249733;22;20376;-88
2021/04/04 13:54:58;;;;;;;4.78;1.70;;;10.50;46.30;;;;;;6279056;22;20413;-91
2021/04/04 14:01:37;;;;;;;4.27;1.70;;;10.40;47.00;;;;;;6249211;22;20381;-95
2021/04/04 14:04:18;;;;;;;3.17;1.60;;;11.20;44.60;;;;;;6260336;22;20400;-95
2021/04/04 14:06:50;;;;;;;3.35;1.83;;;11.60;43.10;;;;;;6246840;22;20364;-95
2021/04/04 14:09:44;;;;;;;4.55;1.80;;;10.80;43.30;;;;;;6267489;22;20412;-96
2021/04/04 14:17:25;;;;;;;4.17;1.50;;;9.60;46.80;;;;;;6240412;22;20422;-96
2021/04/04 14:20:56;;;;;;;8.77;1.85;;;9.60;47.80;;;;;;6257172;22;20380;-95
2021/04/04 14:32:59;;;;;;;2.95;1.50;;;11.50;42.60;;;;;;6267838;22;20398;-94
2021/04/04 14:36:05;;;;;;;4.63;1.50;;;10.90;42.20;;;;;;6203941;22;20398;-96
2021/04/04 14:42:27;;;;;;;3.20;1.13;;;10.80;42.60;;;;;;6300186;22;20386;-96
2021/04/04 14:48:01;;;;;;;2.90;1.50;;;11.00;43.90;;;;;;6290348;22;20392;-96
2021/04/04 14:50:39;;;;;;;4.70;1.30;;;10.20;45.40;;;;;;6222851;22;20437;-95
2021/04/04 15:08:26;;;;;;;3.72;1.60;;;11.50;43.40;;;;;;6245888;22;20707;-94
2021/04/04 15:11:24;;;;;;;3.00;1.60;;;11.80;41.40;;;;;;6232270;22;20388;-96
2021/04/04 15:14:12;;;;;;;3.10;1.30;;;12.00;40.60;;;;;;6280004;22;20374;-96
2021/04/04 15:16:47;;;;;;;3.15;1.48;;;11.20;43.10;;;;;;6277146;22;20396;-93
2021/04/04 15:23:31;;;;;;;3.63;1.50;;;10.70;44.30;;;;;;6311734;22;20489;-95
2021/04/04 15:26:04;;;;;;;5.80;1.50;;;11.00;42.20;;;;;;6214650;22;20714;-92
2021/04/04 15:28:30;;;;;;;4.50;1.67;;;11.40;42.30;;;;;;6252890;22;20400;-95
2021/04/04 15:31:00;;;;;;;5.35;1.75;;;11.00;40.90;;;;;;6253241;22;20395;-93
2021/04/04 15:33:29;;;;;;;4.20;1.92;;;11.00;42.90;;;;;;6253225;22;20380;-90
2021/04/04 15:35:56;;;;;;;3.63;1.48;;;10.60;42.10;;;;;;6254422;22;20384;-93
2021/04/04 15:38:26;;;;;;;3.10;1.65;;;9.70;44.20;;;;;;6256329;22;20380;-92
2021/04/04 15:40:54;;;;;;;5.57;1.50;;;9.50;46.10;;;;;;6254012;22;20849;-92
2021/04/04 15:43:21;;;;;;;3.05;1.40;;;10.10;44.80;;;;;;6254113;22;20459;-86
2021/04/04 15:45:49;;;;;;;5.20;1.70;;;10.30;42.80;;;;;;6229566;22;20463;-94
2021/04/04 15:48:20;;;;;;;4.07;1.60;;;10.60;44.60;;;;;;6258125;22;20372;-93
2021/04/04 15:51:09;;;;;;;3.38;1.60;;;10.90;43.10;;;;;;6258541;22;20925;-88
2021/04/04 15:53:37;;;;;;;5.70;1.60;;;10.60;42.70;;;;;;6281370;22;20375;-89
2021/04/04 15:56:07;;;;;;;2.13;1.17;;;9.80;43.80;;;;;;6254216;22;20424;-90
2021/04/04 15:58:34;;;;;;;4.95;1.52;;;9.30;45.30;;;;;;6255964;22;20364;-91
2021/04/04 16:01:05;;;;;;;4.95;1.60;;;8.80;45.60;;;;;;6258288;22;20430;-89
2021/04/04 16:03:32;;;;;;;4.13;1.48;;;7.90;48.40;;;;;;6281216;22;20404;-89
2021/04/04 16:05:59;;;;;;;4.28;1.77;;;7.30;49.60;;;;;;6252476;22;20872;-87
2021/04/04 16:08:26;;;;;;;3.58;1.35;;;7.00;51.10;;;;;;6253220;22;20387;-93
2021/04/04 16:10:57;;;;;;;4.10;1.80;;;7.50;50.70;;;;;;6256913;22;20479;-92
2021/04/04 16:13:24;;;;;;;3.55;1.67;;;7.60;50.70;;;;;;6229723;22;20473;-89
2021/04/04 16:15:52;;;;;;;3.83;1.80;;;7.90;50.60;;;;;;6252904;22;20474;-89
2021/04/04 16:18:20;;;;;;;4.15;1.70;;;8.00;49.50;;;;;;6254380;22;20369;-89
2021/04/04 16:20:48;;;;;;;4.45;1.90;;;8.30;48.10;;;;;;6256698;22;20379;-93
2021/04/04 16:23:35;;;;;;;5.63;1.80;;;8.40;48.30;;;;;;6257781;22;20373;-92
2021/04/04 16:26:02;;;;;;;6.28;2.15;;;8.80;47.60;;;;;;6256993;22;20384;-90
2021/04/04 16:28:40;;;;;;;4.50;1.77;;;9.20;47.20;;;;;;6250850;22;20850;-89
2021/04/04 16:31:08;;;;;;;6.10;1.80;;;8.60;46.30;;;;;;6203295;23;20680;-89
2021/04/04 16:33:36;;;;;;;5.75;1.80;;;8.10;48.60;;;;;;6225189;23;20496;-91
2021/04/04 16:36:05;;;;;;;4.97;2.13;;;7.90;49.40;;;;;;6224821;23;20497;-90
2021/04/04 16:38:37;;;;;;;6.00;2.10;;;7.50;51.10;;;;;;6223491;23;20393;-90
2021/04/04 16:41:09;;;;;;;4.13;2.08;;;7.00;50.70;;;;;;6225885;23;20513;-92
2021/04/04 16:43:38;;;;;;;6.07;2.10;;;6.50;51.10;;;;;;6198431;22;20476;-90
2021/04/04 16:46:06;;;;;;;3.47;1.85;;;6.50;51.90;;;;;;6224706;23;20436;-89
2021/04/04 16:48:33;;;;;;;3.15;1.90;;;7.00;51.10;;;;;;6223759;23;20376;-89
2021/04/04 16:50:59;;;;;;;5.78;1.80;;;7.50;50.30;;;;;;6226704;23;20433;-88
2021/04/04 16:53:28;;;;;;;4.93;2.00;;;7.90;49.20;;;;;;6240080;23;20382;-89
2021/04/04 16:55:56;;;;;;;6.53;2.05;;;8.10;47.90;;;;;;6263528;22;20927;-89
2021/04/04 16:58:25;;;;;;;6.37;2.50;;;8.20;48.20;;;;;;6232967;23;20377;-90
2021/04/04 17:00:53;;;;;;;5.28;2.38;;;8.10;47.20;;;;;;6225887;23;20390;-91
2021/04/04 17:03:20;;;;;;;6.47;2.97;;;7.80;47.60;;;;;;6223313;23;20477;-89
2021/04/04 17:05:51;;;;;;;6.60;3.08;;;7.70;47.90;;;;;;6223521;23;20389;-88
2021/04/04 17:08:18;;;;;;;6.32;2.80;;;7.50;49.30;;;;;;6222288;23;20412;-90
2021/04/04 17:10:45;;;;;;;6.65;3.25;;;7.50;49.70;;;;;;6226279;23;20385;-88
2021/04/04 17:13:14;;;;;;;5.10;2.63;;;7.40;49.00;;;;;;6226508;23;20449;-94
2021/04/04 17:15:43;;;;;;;6.57;3.20;;;7.30;49.60;;;;;;6259720;23;20854;-91
2021/04/04 17:18:12;;;;;;;6.10;3.00;;;7.30;51.10;;;;;;6228161;23;20398;-91
2021/04/04 17:20:39;;;;;;;9.77;3.43;;;7.20;50.50;;;;;;6226622;23;20393;-90
2021/04/04 17:23:06;;;;;;;9.13;3.25;;;7.10;50.60;;;;;;6234825;22;20433;-92
2021/04/04 17:25:32;;;;;;;8.77;3.92;;;6.70;51.20;;;;;;6246431;22;20389;-93
2021/04/04 17:28:04;;;;;;;8.02;2.90;;;6.50;51.70;;;;;;6273260;22;20452;-94
2021/04/04 17:30:48;;;;;;;6.35;2.97;;;6.30;51.70;;;;;;6278772;22;20387;-91
2021/04/04 17:33:17;;;;;;;8.55;3.20;;;6.10;52.70;;;;;;6257719;22;20380;-91
2021/04/04 17:35:49;;;;;;;7.10;3.08;;;5.80;53.50;;;;;;6285935;22;20396;-90
2021/04/04 17:38:16;;;;;;;6.37;2.60;;;5.60;53.20;;;;;;6257558;22;20403;-90
2021/04/04 17:41:04;;;;;;;5.82;2.50;;;5.40;54.10;;;;;;6259057;22;20490;-95
2021/04/04 17:46:29;;;;;;;7.10;2.58;;;5.10;54.70;;;;;;6261885;22;20432;-92
2021/04/04 17:49:31;;;;;;;4.68;2.40;;;5.00;55.00;;;;;;6258922;22;20388;-92
2021/04/04 17:52:52;;;;;;;7.40;2.30;;;4.90;55.10;;;;;;6236654;23;20386;-94
2021/04/04 17:59:14;;;;;;;5.68;2.42;;;4.70;55.60;;;;;;6290124;22;20396;-92
2021/04/04 18:05:41;;;;;;;5.63;2.45;;;4.70;55.60;;;;;;6267582;22;20381;-92
2021/04/04 18:15:02;;;;;;;5.38;2.47;;;4.50;56.40;;;;;;6281853;22;20392;-89
2021/04/04 18:24:04;;;;;;;5.75;2.00;;;4.40;56.40;;;;;;6259501;22;21760;31
2021/04/04 18:30:29;;;;;;;7.82;2.30;;;4.50;55.80;;;;;;6167321;23;20378;-93
2021/04/04 18:35:56;;;;;;;5.43;2.25;;;4.30;56.40;;;;;;6312027;22;20401;-90
2021/04/04 18:54:23;;;;;;;5.80;2.30;;;4.20;57.20;;;;;;6054094;23;20445;-91
2021/04/04 19:02:51;;;;;;;7.43;2.47;;;4.10;56.90;;;;;;6317198;22;20386;-88
2021/04/04 19:05:29;;;;;;;7.60;2.40;;;4.10;57.40;;;;;;6297428;22;20392;-92